Sd416 Nippon — SKPF — position and weather

sailwx.info

Track history (hours):
 
Tides and Currents Weather Stations Pressure Air Temp Water Temp Dewpoint Dewpoint Depression Visibility Wind Speed Wind Dir Waves Ship Positions

Sd416 Nippon

Last reported at 2014-Nov-19 16:04 UTC. Time now 2014-Nov-24 00:15 UTC.
Position N 58°52' E 010°53'.

Length 17 m; draft 2.5 m.

Type: Fishing. MMSI: 266163000.

Date/timePositionNaut miles runAvg speedWind from/ knotsBaromVisibWave heightAir tempDewpointWater temp
2014-Nov-19 16:04N 58°52' E 010°53'4 7.2
2014-Nov-19 15:33N 58°49' E 010°50'1 0.9
2014-Nov-19 14:33N 58°48' E 010°51'2 1.9
2014-Nov-19 13:33N 58°46' E 010°48'1 0.8
2014-Nov-19 12:17N 58°46' E 010°47'1 1.9
2014-Nov-19 11:33N 58°45' E 010°45'0 0.3
2014-Nov-19 10:31N 58°45' E 010°46'1 1.2
2014-Nov-19 09:33N 58°44' E 010°46'1 1.2
2014-Nov-19 08:33N 58°45' E 010°47'5 0.3
2014-Nov-18 16:08N 58°50' E 010°50'4 7.0
2014-Nov-18 15:33N 58°46' E 010°47'1 1.0
2014-Nov-18 14:30N 58°46' E 010°45'2 1.6
2014-Nov-18 13:33N 58°44' E 010°46'6 0.2
2014-Nov-17 12:32N 58°50' E 010°50'2 1.6
2014-Nov-17 11:04N 58°48' E 010°47'1 1.2
2014-Nov-17 10:33N 58°48' E 010°48'2 1.9
2014-Nov-17 09:33N 58°47' E 010°49'  
2014-Nov-12 15:08N 58°50' E 010°44'15 0.9
2014-Nov-11 23:33N 58°38' E 010°28'1 1.3
2014-Nov-11 22:33N 58°37' E 010°29'2 1.6
2014-Nov-11 21:33N 58°36' E 010°32'2 1.5
2014-Nov-11 20:33N 58°34' E 010°33'1 1.1
2014-Nov-11 19:33N 58°33' E 010°33'9 0.5
2014-Nov-10 23:32N 58°38' E 010°17'1 1.0
2014-Nov-10 22:33N 58°37' E 010°18'1 1.5
2014-Nov-10 21:33N 58°36' E 010°20'2 1.5
2014-Nov-10 20:26N 58°34' E 010°21'1 1.4
2014-Nov-10 19:33N 58°33' E 010°22'5 0.7
2014-Nov-10 12:26N 58°38' E 010°18'1 1.1
2014-Nov-10 11:28N 58°37' E 010°19'1 1.5
2014-Nov-10 10:32N 58°36' E 010°20'1 1.5
2014-Nov-10 09:32N 58°35' E 010°22'1 1.5
2014-Nov-10 08:33N 58°33' E 010°23'1 1.4
2014-Nov-10 07:33N 58°32' E 010°24'2 1.5
2014-Nov-10 06:33N 58°31' E 010°26'1 1.5
2014-Nov-10 05:33N 58°30' E 010°28'2 1.6
2014-Nov-10 04:33N 58°29' E 010°30'1 1.5
2014-Nov-10 03:33N 58°27' E 010°31'1 1.5
2014-Nov-10 02:33N 58°26' E 010°30'1 1.3
2014-Nov-10 01:33N 58°25' E 010°30'6 6.1
2014-Nov-10 00:33N 58°30' E 010°37'6 6.4
2014-Nov-09 23:33N 58°35' E 010°45'6 6.3
2014-Nov-09 22:33N 58°39' E 010°53'  
Track history (hours):
 
Tides and Currents Weather Stations Pressure Air Temp Water Temp Dewpoint Dewpoint Depression Visibility Wind Speed Wind Dir Waves Ship Positions

Sd416 Nippon

Last reported at 2014-Nov-19 16:04 UTC. Time now 2014-Nov-24 00:15 UTC.
Position N 58°52' E 010°53'.

Length 17 m; draft 2.5 m.

Type: Fishing. MMSI: 266163000.

Date/timePositionNaut miles runAvg speedWind from/ knotsBaromVisibWave heightAir tempDewpointWater temp
2014-Nov-19 16:04N 58°52' E 010°53'4 7.2
2014-Nov-19 15:33N 58°49' E 010°50'1 0.9
2014-Nov-19 14:33N 58°48' E 010°51'2 1.9
2014-Nov-19 13:33N 58°46' E 010°48'1 0.8
2014-Nov-19 12:17N 58°46' E 010°47'1 1.9
2014-Nov-19 11:33N 58°45' E 010°45'0 0.3
2014-Nov-19 10:31N 58°45' E 010°46'1 1.2
2014-Nov-19 09:33N 58°44' E 010°46'1 1.2
2014-Nov-19 08:33N 58°45' E 010°47'5 0.3
2014-Nov-18 16:08N 58°50' E 010°50'4 7.0
2014-Nov-18 15:33N 58°46' E 010°47'1 1.0
2014-Nov-18 14:30N 58°46' E 010°45'2 1.6
2014-Nov-18 13:33N 58°44' E 010°46'6 0.2
2014-Nov-17 12:32N 58°50' E 010°50'2 1.6
2014-Nov-17 11:04N 58°48' E 010°47'1 1.2
2014-Nov-17 10:33N 58°48' E 010°48'2 1.9
2014-Nov-17 09:33N 58°47' E 010°49'  
2014-Nov-12 15:08N 58°50' E 010°44'15 0.9
2014-Nov-11 23:33N 58°38' E 010°28'1 1.3
2014-Nov-11 22:33N 58°37' E 010°29'2 1.6
2014-Nov-11 21:33N 58°36' E 010°32'2 1.5
2014-Nov-11 20:33N 58°34' E 010°33'1 1.1
2014-Nov-11 19:33N 58°33' E 010°33'9 0.5
2014-Nov-10 23:32N 58°38' E 010°17'1 1.0
2014-Nov-10 22:33N 58°37' E 010°18'1 1.5
2014-Nov-10 21:33N 58°36' E 010°20'2 1.5
2014-Nov-10 20:26N 58°34' E 010°21'1 1.4
2014-Nov-10 19:33N 58°33' E 010°22'5 0.7
2014-Nov-10 12:26N 58°38' E 010°18'1 1.1
2014-Nov-10 11:28N 58°37' E 010°19'1 1.5
2014-Nov-10 10:32N 58°36' E 010°20'1 1.5
2014-Nov-10 09:32N 58°35' E 010°22'1 1.5
2014-Nov-10 08:33N 58°33' E 010°23'1 1.4
2014-Nov-10 07:33N 58°32' E 010°24'2 1.5
2014-Nov-10 06:33N 58°31' E 010°26'1 1.5
2014-Nov-10 05:33N 58°30' E 010°28'2 1.6
2014-Nov-10 04:33N 58°29' E 010°30'1 1.5
2014-Nov-10 03:33N 58°27' E 010°31'1 1.5
2014-Nov-10 02:33N 58°26' E 010°30'1 1.3
2014-Nov-10 01:33N 58°25' E 010°30'6 6.1
2014-Nov-10 00:33N 58°30' E 010°37'6 6.4
2014-Nov-09 23:33N 58°35' E 010°45'6 6.3
2014-Nov-09 22:33N 58°39' E 010°53'  

Dump ship's entire track history